sensor_id;sensor_type;location;lat;lon;timestamp;P1;durP1;ratioP1;P2;durP2;ratioP2
10403;SDS011;5248;47.374;8.486;2024-01-15T00:00:52;12.87;;;9.30;;
10403;SDS011;5248;47.374;8.486;2024-01-15T00:03:19;13.40;;;9.83;;
10403;SDS011;5248;47.374;8.486;2024-01-15T00:05:48;15.43;;;10.47;;
10403;SDS011;5248;47.374;8.486;2024-01-15T00:08:16;16.67;;;11.90;;
10403;SDS011;5248;47.374;8.486;2024-01-15T00:10:43;17.43;;;11.50;;
10403;SDS011;5248;47.374;8.486;2024-01-15T00:13:09;18.07;;;11.73;;
10403;SDS011;5248;47.374;8.486;2024-01-15T00:15:36;15.03;;;10.87;;
10403;SDS011;5248;47.374;8.486;2024-01-15T00:18:04;16.20;;;10.83;;
10403;SDS011;5248;47.374;8.486;2024-01-15T00:20:31;13.93;;;10.57;;
10403;SDS011;5248;47.374;8.486;2024-01-15T00:22:57;13.33;;;10.00;;
10403;SDS011;5248;47.374;8.486;2024-01-15T00:25:24;15.60;;;10.27;;
10403;SDS011;5248;47.374;8.486;2024-01-15T00:27:51;22.07;;;12.43;;
10403;SDS011;5248;47.374;8.486;2024-01-15T00:30:18;15.30;;;9.27;;
10403;SDS011;5248;47.374;8.486;2024-01-15T00:32:45;10.17;;;7.13;;
10403;SDS011;5248;47.374;8.486;2024-01-15T00:35:12;10.23;;;8.20;;
10403;SDS011;5248;47.374;8.486;2024-01-15T00:37:39;11.37;;;8.20;;
10403;SDS011;5248;47.374;8.486;2024-01-15T00:40:06;13.33;;;9.33;;
10403;SDS011;5248;47.374;8.486;2024-01-15T00:42:33;18.87;;;10.97;;
10403;SDS011;5248;47.374;8.486;2024-01-15T00:45:03;14.63;;;11.03;;
10403;SDS011;5248;47.374;8.486;2024-01-15T00:47:30;14.80;;;10.73;;
10403;SDS011;5248;47.374;8.486;2024-01-15T00:49:57;17.43;;;11.97;;
10403;SDS011;5248;47.374;8.486;2024-01-15T00:52:25;13.93;;;10.07;;
10403;SDS011;5248;47.374;8.486;2024-01-15T00:54:51;12.20;;;8.90;;
10403;SDS011;5248;47.374;8.486;2024-01-15T00:57:18;11.37;;;8.47;;
10403;SDS011;5248;47.374;8.486;2024-01-15T00:59:47;11.23;;;8.40;;
10403;SDS011;5248;47.374;8.486;2024-01-15T01:02:14;10.57;;;8.23;;
10403;SDS011;5248;47.374;8.486;2024-01-15T01:04:40;11.60;;;9.07;;
10403;SDS011;5248;47.374;8.486;2024-01-15T01:07:07;14.27;;;9.60;;
10403;SDS011;5248;47.374;8.486;2024-01-15T01:09:35;11.33;;;8.97;;
10403;SDS011;5248;47.374;8.486;2024-01-15T01:12:01;12.93;;;9.17;;
10403;SDS011;5248;47.374;8.486;2024-01-15T01:14:28;12.43;;;9.30;;
10403;SDS011;5248;47.374;8.486;2024-01-15T01:16:54;12.03;;;8.17;;
10403;SDS011;5248;47.374;8.486;2024-01-15T01:19:21;11.27;;;8.80;;
10403;SDS011;5248;47.374;8.486;2024-01-15T01:21:47;20.50;;;12.97;;
10403;SDS011;5248;47.374;8.486;2024-01-15T01:24:15;17.70;;;12.50;;
10403;SDS011;5248;47.374;8.486;2024-01-15T01:26:43;17.40;;;12.20;;
10403;SDS011;5248;47.374;8.486;2024-01-15T01:29:11;15.40;;;11.73;;
10403;SDS011;5248;47.374;8.486;2024-01-15T01:31:41;15.20;;;11.17;;
10403;SDS011;5248;47.374;8.486;2024-01-15T01:34:09;17.20;;;12.83;;
10403;SDS011;5248;47.374;8.486;2024-01-15T01:36:35;17.03;;;11.60;;
10403;SDS011;5248;47.374;8.486;2024-01-15T01:39:02;16.40;;;11.97;;
10403;SDS011;5248;47.374;8.486;2024-01-15T01:41:28;16.23;;;11.80;;
10403;SDS011;5248;47.374;8.486;2024-01-15T01:43:56;15.87;;;11.60;;
10403;SDS011;5248;47.374;8.486;2024-01-15T01:46:23;15.17;;;12.10;;
10403;SDS011;5248;47.374;8.486;2024-01-15T01:48:51;16.30;;;12.00;;
10403;SDS011;5248;47.374;8.486;2024-01-15T01:51:17;17.43;;;12.17;;
10403;SDS011;5248;47.374;8.486;2024-01-15T01:53:44;18.03;;;11.70;;
10403;SDS011;5248;47.374;8.486;2024-01-15T01:56:11;15.83;;;12.27;;
10403;SDS011;5248;47.374;8.486;2024-01-15T01:58:38;16.53;;;12.30;;
10403;SDS011;5248;47.374;8.486;2024-01-15T02:01:06;17.90;;;13.27;;
10403;SDS011;5248;47.374;8.486;2024-01-15T02:03:32;18.03;;;12.63;;
10403;SDS011;5248;47.374;8.486;2024-01-15T02:05:59;18.53;;;13.50;;
10403;SDS011;5248;47.374;8.486;2024-01-15T02:08:26;24.50;;;15.67;;
10403;SDS011;5248;47.374;8.486;2024-01-15T02:10:53;22.27;;;14.70;;
10403;SDS011;5248;47.374;8.486;2024-01-15T02:13:20;24.10;;;15.53;;
10403;SDS011;5248;47.374;8.486;2024-01-15T02:15:47;23.67;;;15.73;;
10403;SDS011;5248;47.374;8.486;2024-01-15T02:18:14;23.60;;;15.87;;
10403;SDS011;5248;47.374;8.486;2024-01-15T02:20:42;23.20;;;15.80;;
10403;SDS011;5248;47.374;8.486;2024-01-15T02:23:10;23.70;;;15.63;;
10403;SDS011;5248;47.374;8.486;2024-01-15T02:25:38;23.77;;;15.67;;
10403;SDS011;5248;47.374;8.486;2024-01-15T02:28:08;26.33;;;16.70;;
10403;SDS011;5248;47.374;8.486;2024-01-15T02:30:37;26.23;;;16.27;;
10403;SDS011;5248;47.374;8.486;2024-01-15T02:33:04;25.93;;;17.53;;
10403;SDS011;5248;47.374;8.486;2024-01-15T02:35:31;28.13;;;17.20;;
10403;SDS011;5248;47.374;8.486;2024-01-15T02:37:58;28.07;;;16.63;;
10403;SDS011;5248;47.374;8.486;2024-01-15T02:40:26;27.67;;;17.47;;
10403;SDS011;5248;47.374;8.486;2024-01-15T02:42:52;31.43;;;18.27;;
10403;SDS011;5248;47.374;8.486;2024-01-15T02:45:19;29.63;;;18.70;;
10403;SDS011;5248;47.374;8.486;2024-01-15T02:47:46;30.37;;;17.97;;
10403;SDS011;5248;47.374;8.486;2024-01-15T02:50:12;33.60;;;19.03;;
10403;SDS011;5248;47.374;8.486;2024-01-15T02:52:39;30.77;;;18.63;;
10403;SDS011;5248;47.374;8.486;2024-01-15T02:55:06;33.17;;;18.83;;
10403;SDS011;5248;47.374;8.486;2024-01-15T02:57:34;29.10;;;17.60;;
10403;SDS011;5248;47.374;8.486;2024-01-15T03:00:01;33.70;;;19.63;;
10403;SDS011;5248;47.374;8.486;2024-01-15T03:02:28;31.70;;;18.77;;
10403;SDS011;5248;47.374;8.486;2024-01-15T03:04:56;32.90;;;18.00;;
10403;SDS011;5248;47.374;8.486;2024-01-15T03:07:23;29.23;;;17.57;;
10403;SDS011;5248;47.374;8.486;2024-01-15T03:09:49;28.50;;;17.57;;
10403;SDS011;5248;47.374;8.486;2024-01-15T03:12:16;28.60;;;17.67;;
10403;SDS011;5248;47.374;8.486;2024-01-15T03:14:44;26.20;;;16.73;;
10403;SDS011;5248;47.374;8.486;2024-01-15T03:17:11;27.07;;;16.70;;
10403;SDS011;5248;47.374;8.486;2024-01-15T03:19:38;26.27;;;16.83;;
10403;SDS011;5248;47.374;8.486;2024-01-15T03:22:04;28.23;;;17.00;;
10403;SDS011;5248;47.374;8.486;2024-01-15T03:24:33;25.63;;;16.23;;
10403;SDS011;5248;47.374;8.486;2024-01-15T03:27:01;26.80;;;15.90;;
10403;SDS011;5248;47.374;8.486;2024-01-15T03:29:28;26.37;;;16.70;;
10403;SDS011;5248;47.374;8.486;2024-01-15T03:31:56;29.23;;;17.17;;
10403;SDS011;5248;47.374;8.486;2024-01-15T03:34:22;24.10;;;15.20;;
10403;SDS011;5248;47.374;8.486;2024-01-15T03:36:49;23.47;;;15.77;;
10403;SDS011;5248;47.374;8.486;2024-01-15T03:39:15;23.20;;;13.93;;
10403;SDS011;5248;47.374;8.486;2024-01-15T03:41:42;23.23;;;14.77;;
10403;SDS011;5248;47.374;8.486;2024-01-15T03:44:08;22.37;;;14.37;;
10403;SDS011;5248;47.374;8.486;2024-01-15T03:46:35;23.63;;;15.13;;
10403;SDS011;5248;47.374;8.486;2024-01-15T03:49:03;20.30;;;13.23;;
10403;SDS011;5248;47.374;8.486;2024-01-15T03:51:29;22.80;;;13.87;;
10403;SDS011;5248;47.374;8.486;2024-01-15T03:53:56;20.37;;;13.33;;
10403;SDS011;5248;47.374;8.486;2024-01-15T03:56:22;19.90;;;13.37;;
10403;SDS011;5248;47.374;8.486;2024-01-15T03:58:49;21.27;;;13.93;;
10403;SDS011;5248;47.374;8.486;2024-01-15T04:01:16;19.77;;;12.90;;
10403;SDS011;5248;47.374;8.486;2024-01-15T04:03:42;16.90;;;11.97;;
10403;SDS011;5248;47.374;8.486;2024-01-15T04:06:10;19.23;;;13.10;;
10403;SDS011;5248;47.374;8.486;2024-01-15T04:08:36;20.70;;;13.43;;
10403;SDS011;5248;47.374;8.486;2024-01-15T04:11:03;20.23;;;13.17;;
10403;SDS011;5248;47.374;8.486;2024-01-15T04:13:32;20.70;;;12.80;;
10403;SDS011;5248;47.374;8.486;2024-01-15T04:15:58;19.97;;;12.17;;
10403;SDS011;5248;47.374;8.486;2024-01-15T04:18:26;20.27;;;11.90;;
10403;SDS011;5248;47.374;8.486;2024-01-15T04:20:52;17.27;;;11.63;;
10403;SDS011;5248;47.374;8.486;2024-01-15T04:23:20;19.87;;;12.00;;
10403;SDS011;5248;47.374;8.486;2024-01-15T04:25:47;19.43;;;12.77;;
10403;SDS011;5248;47.374;8.486;2024-01-15T04:28:13;17.57;;;12.10;;
10403;SDS011;5248;47.374;8.486;2024-01-15T04:30:41;22.13;;;12.70;;
10403;SDS011;5248;47.374;8.486;2024-01-15T04:33:08;19.53;;;11.70;;
10403;SDS011;5248;47.374;8.486;2024-01-15T04:35:34;19.70;;;11.90;;
10403;SDS011;5248;47.374;8.486;2024-01-15T04:38:01;21.27;;;13.33;;
10403;SDS011;5248;47.374;8.486;2024-01-15T04:40:29;19.37;;;12.47;;
10403;SDS011;5248;47.374;8.486;2024-01-15T04:42:56;21.40;;;13.07;;
10403;SDS011;5248;47.374;8.486;2024-01-15T04:45:22;17.90;;;12.53;;
10403;SDS011;5248;47.374;8.486;2024-01-15T04:47:53;18.37;;;12.00;;
10403;SDS011;5248;47.374;8.486;2024-01-15T04:50:19;18.83;;;13.40;;
10403;SDS011;5248;47.374;8.486;2024-01-15T04:52:46;19.03;;;11.97;;
10403;SDS011;5248;47.374;8.486;2024-01-15T04:55:13;17.27;;;11.40;;
10403;SDS011;5248;47.374;8.486;2024-01-15T04:57:44;15.97;;;10.90;;
10403;SDS011;5248;47.374;8.486;2024-01-15T05:00:11;19.30;;;11.57;;
10403;SDS011;5248;47.374;8.486;2024-01-15T05:02:39;15.13;;;10.20;;
10403;SDS011;5248;47.374;8.486;2024-01-15T05:05:05;14.23;;;9.97;;
10403;SDS011;5248;47.374;8.486;2024-01-15T05:07:32;19.50;;;11.50;;
10403;SDS011;5248;47.374;8.486;2024-01-15T05:09:58;13.43;;;9.33;;
10403;SDS011;5248;47.374;8.486;2024-01-15T05:12:25;15.17;;;9.20;;
10403;SDS011;5248;47.374;8.486;2024-01-15T05:14:53;14.43;;;9.17;;
10403;SDS011;5248;47.374;8.486;2024-01-15T05:17:19;14.83;;;9.00;;
10403;SDS011;5248;47.374;8.486;2024-01-15T05:19:46;13.67;;;8.43;;
10403;SDS011;5248;47.374;8.486;2024-01-15T05:22:12;13.63;;;8.97;;
10403;SDS011;5248;47.374;8.486;2024-01-15T05:24:39;11.43;;;8.23;;
10403;SDS011;5248;47.374;8.486;2024-01-15T05:27:06;12.80;;;7.97;;
10403;SDS011;5248;47.374;8.486;2024-01-15T05:29:32;10.83;;;7.90;;
10403;SDS011;5248;47.374;8.486;2024-01-15T05:32:00;11.93;;;7.90;;
10403;SDS011;5248;47.374;8.486;2024-01-15T05:34:26;12.30;;;8.07;;
10403;SDS011;5248;47.374;8.486;2024-01-15T05:36:53;10.77;;;7.53;;
10403;SDS011;5248;47.374;8.486;2024-01-15T05:39:21;13.20;;;8.07;;
10403;SDS011;5248;47.374;8.486;2024-01-15T05:41:48;13.23;;;7.30;;
10403;SDS011;5248;47.374;8.486;2024-01-15T05:44:14;10.83;;;7.50;;
10403;SDS011;5248;47.374;8.486;2024-01-15T05:46:41;10.80;;;7.77;;
10403;SDS011;5248;47.374;8.486;2024-01-15T05:49:11;12.17;;;7.37;;
10403;SDS011;5248;47.374;8.486;2024-01-15T05:51:37;8.93;;;7.07;;
10403;SDS011;5248;47.374;8.486;2024-01-15T05:54:04;8.77;;;6.90;;
10403;SDS011;5248;47.374;8.486;2024-01-15T05:56:31;10.63;;;7.27;;
10403;SDS011;5248;47.374;8.486;2024-01-15T05:58:58;9.20;;;6.97;;
10403;SDS011;5248;47.374;8.486;2024-01-15T06:01:24;10.07;;;6.87;;
10403;SDS011;5248;47.374;8.486;2024-01-15T06:03:51;8.80;;;6.43;;
10403;SDS011;5248;47.374;8.486;2024-01-15T06:06:19;10.30;;;7.17;;
10403;SDS011;5248;47.374;8.486;2024-01-15T06:08:46;10.57;;;7.83;;
10403;SDS011;5248;47.374;8.486;2024-01-15T06:11:13;10.17;;;7.40;;
10403;SDS011;5248;47.374;8.486;2024-01-15T06:13:40;11.73;;;8.00;;
10403;SDS011;5248;47.374;8.486;2024-01-15T06:16:11;10.60;;;7.57;;
10403;SDS011;5248;47.374;8.486;2024-01-15T06:18:39;11.33;;;8.17;;
10403;SDS011;5248;47.374;8.486;2024-01-15T06:21:06;11.53;;;8.17;;
10403;SDS011;5248;47.374;8.486;2024-01-15T06:23:33;9.57;;;7.63;;
10403;SDS011;5248;47.374;8.486;2024-01-15T06:26:01;10.77;;;7.60;;
10403;SDS011;5248;47.374;8.486;2024-01-15T06:28:28;12.07;;;8.50;;
10403;SDS011;5248;47.374;8.486;2024-01-15T06:30:55;12.00;;;8.27;;
10403;SDS011;5248;47.374;8.486;2024-01-15T06:33:22;10.60;;;7.57;;
10403;SDS011;5248;47.374;8.486;2024-01-15T06:35:50;16.73;;;9.20;;
10403;SDS011;5248;47.374;8.486;2024-01-15T06:38:16;10.90;;;8.17;;
10403;SDS011;5248;47.374;8.486;2024-01-15T06:40:44;12.37;;;8.40;;
10403;SDS011;5248;47.374;8.486;2024-01-15T06:43:13;8.67;;;7.40;;
10403;SDS011;5248;47.374;8.486;2024-01-15T06:45:40;12.63;;;8.47;;
10403;SDS011;5248;47.374;8.486;2024-01-15T06:48:06;10.00;;;7.80;;
10403;SDS011;5248;47.374;8.486;2024-01-15T06:50:33;9.90;;;7.43;;
10403;SDS011;5248;47.374;8.486;2024-01-15T06:52:59;10.67;;;7.70;;
10403;SDS011;5248;47.374;8.486;2024-01-15T06:55:26;10.40;;;7.13;;
10403;SDS011;5248;47.374;8.486;2024-01-15T06:57:54;9.40;;;7.40;;
10403;SDS011;5248;47.374;8.486;2024-01-15T07:00:21;9.53;;;7.40;;
10403;SDS011;5248;47.374;8.486;2024-01-15T07:02:47;8.00;;;6.60;;
10403;SDS011;5248;47.374;8.486;2024-01-15T07:05:14;8.73;;;6.60;;
10403;SDS011;5248;47.374;8.486;2024-01-15T07:07:41;9.17;;;6.80;;
10403;SDS011;5248;47.374;8.486;2024-01-15T07:10:08;7.77;;;6.27;;
10403;SDS011;5248;47.374;8.486;2024-01-15T07:12:35;10.70;;;7.10;;
10403;SDS011;5248;47.374;8.486;2024-01-15T07:15:03;8.30;;;6.77;;
10403;SDS011;5248;47.374;8.486;2024-01-15T07:17:32;8.77;;;6.47;;
10403;SDS011;5248;47.374;8.486;2024-01-15T07:19:58;8.60;;;6.10;;
10403;SDS011;5248;47.374;8.486;2024-01-15T07:22:25;6.50;;;5.53;;
10403;SDS011;5248;47.374;8.486;2024-01-15T07:24:52;7.03;;;5.93;;
10403;SDS011;5248;47.374;8.486;2024-01-15T07:27:19;9.23;;;6.73;;
10403;SDS011;5248;47.374;8.486;2024-01-15T07:29:46;8.10;;;6.03;;
10403;SDS011;5248;47.374;8.486;2024-01-15T07:32:15;7.27;;;5.47;;
10403;SDS011;5248;47.374;8.486;2024-01-15T07:34:41;6.57;;;5.13;;
10403;SDS011;5248;47.374;8.486;2024-01-15T07:37:08;7.03;;;5.47;;
10403;SDS011;5248;47.374;8.486;2024-01-15T07:39:35;7.27;;;5.30;;
10403;SDS011;5248;47.374;8.486;2024-01-15T07:42:01;6.40;;;5.63;;
10403;SDS011;5248;47.374;8.486;2024-01-15T07:44:28;7.00;;;5.47;;
10403;SDS011;5248;47.374;8.486;2024-01-15T07:46:54;7.47;;;6.23;;
10403;SDS011;5248;47.374;8.486;2024-01-15T07:49:22;8.30;;;6.03;;
10403;SDS011;5248;47.374;8.486;2024-01-15T07:51:49;7.20;;;5.30;;
10403;SDS011;5248;47.374;8.486;2024-01-15T07:54:16;7.73;;;5.73;;
10403;SDS011;5248;47.374;8.486;2024-01-15T07:59:28;8.60;;;6.67;;
10403;SDS011;5248;47.374;8.486;2024-01-15T08:01:55;8.40;;;6.33;;
10403;SDS011;5248;47.374;8.486;2024-01-15T08:04:23;6.97;;;6.10;;
10403;SDS011;5248;47.374;8.486;2024-01-15T08:06:49;8.70;;;6.90;;
10403;SDS011;5248;47.374;8.486;2024-01-15T08:09:16;9.43;;;7.20;;
10403;SDS011;5248;47.374;8.486;2024-01-15T08:11:43;11.23;;;6.77;;
10403;SDS011;5248;47.374;8.486;2024-01-15T08:14:10;11.20;;;6.63;;
10403;SDS011;5248;47.374;8.486;2024-01-15T08:16:38;10.87;;;7.07;;
10403;SDS011;5248;47.374;8.486;2024-01-15T08:19:05;10.57;;;6.60;;
10403;SDS011;5248;47.374;8.486;2024-01-15T08:21:33;9.20;;;6.90;;
10403;SDS011;5248;47.374;8.486;2024-01-15T08:24:00;8.97;;;6.70;;
10403;SDS011;5248;47.374;8.486;2024-01-15T08:26:30;9.00;;;6.27;;
10403;SDS011;5248;47.374;8.486;2024-01-15T08:28:57;8.77;;;6.27;;
10403;SDS011;5248;47.374;8.486;2024-01-15T08:31:24;7.97;;;6.23;;
10403;SDS011;5248;47.374;8.486;2024-01-15T08:33:51;8.63;;;6.70;;
10403;SDS011;5248;47.374;8.486;2024-01-15T08:36:17;9.33;;;6.60;;
10403;SDS011;5248;47.374;8.486;2024-01-15T08:38:46;11.17;;;6.63;;
10403;SDS011;5248;47.374;8.486;2024-01-15T08:41:12;8.83;;;6.87;;
10403;SDS011;5248;47.374;8.486;2024-01-15T08:43:39;9.93;;;7.53;;
10403;SDS011;5248;47.374;8.486;2024-01-15T08:46:06;14.70;;;9.90;;
10403;SDS011;5248;47.374;8.486;2024-01-15T08:48:33;11.70;;;8.60;;
10403;SDS011;5248;47.374;8.486;2024-01-15T08:50:59;11.23;;;7.47;;
10403;SDS011;5248;47.374;8.486;2024-01-15T08:53:26;9.67;;;6.87;;
10403;SDS011;5248;47.374;8.486;2024-01-15T08:55:54;10.33;;;7.87;;
10403;SDS011;5248;47.374;8.486;2024-01-15T08:58:21;9.73;;;7.07;;
10403;SDS011;5248;47.374;8.486;2024-01-15T09:00:49;9.17;;;6.93;;
10403;SDS011;5248;47.374;8.486;2024-01-15T09:03:16;9.30;;;7.50;;
10403;SDS011;5248;47.374;8.486;2024-01-15T09:05:42;11.50;;;8.43;;
10403;SDS011;5248;47.374;8.486;2024-01-15T09:08:09;11.40;;;8.07;;
10403;SDS011;5248;47.374;8.486;2024-01-15T09:10:38;8.43;;;6.60;;
10403;SDS011;5248;47.374;8.486;2024-01-15T09:13:07;8.10;;;6.40;;
10403;SDS011;5248;47.374;8.486;2024-01-15T09:15:36;7.60;;;6.13;;
10403;SDS011;5248;47.374;8.486;2024-01-15T09:18:02;6.87;;;5.90;;
10403;SDS011;5248;47.374;8.486;2024-01-15T09:20:32;9.23;;;6.90;;
10403;SDS011;5248;47.374;8.486;2024-01-15T09:22:59;9.20;;;6.67;;
10403;SDS011;5248;47.374;8.486;2024-01-15T09:25:25;8.30;;;6.73;;
10403;SDS011;5248;47.374;8.486;2024-01-15T09:27:52;8.93;;;7.23;;
10403;SDS011;5248;47.374;8.486;2024-01-15T09:30:20;8.07;;;6.00;;
10403;SDS011;5248;47.374;8.486;2024-01-15T09:32:47;8.00;;;5.90;;
10403;SDS011;5248;47.374;8.486;2024-01-15T09:35:14;8.23;;;5.83;;
10403;SDS011;5248;47.374;8.486;2024-01-15T09:37:40;8.40;;;6.03;;
10403;SDS011;5248;47.374;8.486;2024-01-15T09:40:12;5.97;;;5.10;;
10403;SDS011;5248;47.374;8.486;2024-01-15T09:42:39;6.23;;;4.43;;
10403;SDS011;5248;47.374;8.486;2024-01-15T09:45:07;7.00;;;5.33;;
10403;SDS011;5248;47.374;8.486;2024-01-15T09:47:35;4.90;;;4.40;;
10403;SDS011;5248;47.374;8.486;2024-01-15T09:50:03;6.27;;;4.80;;
10403;SDS011;5248;47.374;8.486;2024-01-15T09:52:31;5.67;;;4.77;;
10403;SDS011;5248;47.374;8.486;2024-01-15T09:54:57;4.63;;;4.23;;
10403;SDS011;5248;47.374;8.486;2024-01-15T09:57:24;5.17;;;4.50;;
10403;SDS011;5248;47.374;8.486;2024-01-15T09:59:51;7.90;;;4.77;;
10403;SDS011;5248;47.374;8.486;2024-01-15T10:02:18;4.77;;;4.33;;
10403;SDS011;5248;47.374;8.486;2024-01-15T10:04:46;4.40;;;4.00;;
10403;SDS011;5248;47.374;8.486;2024-01-15T10:07:14;5.00;;;4.50;;
10403;SDS011;5248;47.374;8.486;2024-01-15T10:09:41;5.23;;;4.33;;
10403;SDS011;5248;47.374;8.486;2024-01-15T10:12:08;5.47;;;4.87;;
10403;SDS011;5248;47.374;8.486;2024-01-15T10:14:35;5.90;;;4.80;;
10403;SDS011;5248;47.374;8.486;2024-01-15T10:17:11;6.67;;;4.70;;
10403;SDS011;5248;47.374;8.486;2024-01-15T10:19:39;6.90;;;4.70;;
10403;SDS011;5248;47.374;8.486;2024-01-15T10:22:08;5.57;;;4.47;;
10403;SDS011;5248;47.374;8.486;2024-01-15T10:24:35;4.43;;;4.07;;
10403;SDS011;5248;47.374;8.486;2024-01-15T10:27:05;8.07;;;4.93;;
10403;SDS011;5248;47.374;8.486;2024-01-15T10:29:32;8.63;;;4.90;;
10403;SDS011;5248;47.374;8.486;2024-01-15T10:32:06;5.50;;;4.57;;
10403;SDS011;5248;47.374;8.486;2024-01-15T10:34:37;5.23;;;4.10;;
10403;SDS011;5248;47.374;8.486;2024-01-15T10:37:04;6.63;;;4.60;;
10403;SDS011;5248;47.374;8.486;2024-01-15T10:39:34;5.77;;;4.87;;
10403;SDS011;5248;47.374;8.486;2024-01-15T10:42:00;6.23;;;4.90;;
10403;SDS011;5248;47.374;8.486;2024-01-15T10:44:27;5.00;;;4.50;;
10403;SDS011;5248;47.374;8.486;2024-01-15T10:46:53;5.47;;;4.70;;
10403;SDS011;5248;47.374;8.486;2024-01-15T10:49:21;5.97;;;4.53;;
10403;SDS011;5248;47.374;8.486;2024-01-15T10:51:51;5.33;;;4.43;;
10403;SDS011;5248;47.374;8.486;2024-01-15T10:54:20;6.63;;;4.77;;
10403;SDS011;5248;47.374;8.486;2024-01-15T10:56:49;6.93;;;5.10;;
10403;SDS011;5248;47.374;8.486;2024-01-15T10:59:16;6.43;;;5.00;;
10403;SDS011;5248;47.374;8.486;2024-01-15T11:01:42;5.47;;;4.80;;
10403;SDS011;5248;47.374;8.486;2024-01-15T11:04:11;7.37;;;5.50;;
10403;SDS011;5248;47.374;8.486;2024-01-15T11:06:42;5.57;;;5.00;;
10403;SDS011;5248;47.374;8.486;2024-01-15T11:09:09;6.07;;;4.37;;
10403;SDS011;5248;47.374;8.486;2024-01-15T11:11:40;6.10;;;5.03;;
10403;SDS011;5248;47.374;8.486;2024-01-15T11:14:07;6.13;;;5.00;;
10403;SDS011;5248;47.374;8.486;2024-01-15T11:19:25;5.40;;;4.60;;
10403;SDS011;5248;47.374;8.486;2024-01-15T11:21:53;5.57;;;4.70;;
10403;SDS011;5248;47.374;8.486;2024-01-15T11:24:33;5.57;;;5.03;;
10403;SDS011;5248;47.374;8.486;2024-01-15T11:27:02;5.63;;;4.93;;
10403;SDS011;5248;47.374;8.486;2024-01-15T11:29:31;5.73;;;4.80;;
10403;SDS011;5248;47.374;8.486;2024-01-15T11:32:00;7.17;;;5.17;;
10403;SDS011;5248;47.374;8.486;2024-01-15T11:40:36;6.00;;;5.10;;
10403;SDS011;5248;47.374;8.486;2024-01-15T11:43:05;5.57;;;4.93;;
10403;SDS011;5248;47.374;8.486;2024-01-15T11:45:34;5.57;;;4.83;;
10403;SDS011;5248;47.374;8.486;2024-01-15T11:48:11;7.33;;;5.10;;
10403;SDS011;5248;47.374;8.486;2024-01-15T11:50:39;5.77;;;5.00;;
10403;SDS011;5248;47.374;8.486;2024-01-15T11:53:10;5.13;;;4.63;;
10403;SDS011;5248;47.374;8.486;2024-01-15T11:55:43;6.17;;;4.50;;
10403;SDS011;5248;47.374;8.486;2024-01-15T11:58:12;6.00;;;4.83;;
10403;SDS011;5248;47.374;8.486;2024-01-15T12:00:40;7.00;;;4.97;;
10403;SDS011;5248;47.374;8.486;2024-01-15T12:03:09;6.23;;;4.90;;
10403;SDS011;5248;47.374;8.486;2024-01-15T12:05:45;6.07;;;4.70;;
10403;SDS011;5248;47.374;8.486;2024-01-15T12:08:11;5.60;;;4.97;;
10403;SDS011;5248;47.374;8.486;2024-01-15T12:10:38;6.00;;;4.73;;
10403;SDS011;5248;47.374;8.486;2024-01-15T12:13:08;6.07;;;4.90;;
10403;SDS011;5248;47.374;8.486;2024-01-15T12:15:38;5.93;;;5.33;;
10403;SDS011;5248;47.374;8.486;2024-01-15T12:18:07;6.47;;;5.13;;
10403;SDS011;5248;47.374;8.486;2024-01-15T12:20:34;7.17;;;5.37;;
10403;SDS011;5248;47.374;8.486;2024-01-15T12:23:01;6.07;;;5.47;;
10403;SDS011;5248;47.374;8.486;2024-01-15T12:25:28;7.10;;;5.73;;
10403;SDS011;5248;47.374;8.486;2024-01-15T12:27:55;6.67;;;5.07;;
10403;SDS011;5248;47.374;8.486;2024-01-15T12:30:22;6.17;;;5.37;;
10403;SDS011;5248;47.374;8.486;2024-01-15T12:32:53;6.03;;;5.37;;
10403;SDS011;5248;47.374;8.486;2024-01-15T12:35:20;6.60;;;5.33;;
10403;SDS011;5248;47.374;8.486;2024-01-15T12:37:47;5.67;;;5.10;;
10403;SDS011;5248;47.374;8.486;2024-01-15T12:40:13;5.63;;;5.03;;
10403;SDS011;5248;47.374;8.486;2024-01-15T12:42:46;6.53;;;5.40;;
10403;SDS011;5248;47.374;8.486;2024-01-15T12:45:12;6.40;;;5.40;;
10403;SDS011;5248;47.374;8.486;2024-01-15T12:47:39;6.97;;;5.77;;
10403;SDS011;5248;47.374;8.486;2024-01-15T12:50:08;7.30;;;6.17;;
10403;SDS011;5248;47.374;8.486;2024-01-15T12:52:35;7.33;;;6.10;;
10403;SDS011;5248;47.374;8.486;2024-01-15T12:55:03;6.90;;;5.73;;
10403;SDS011;5248;47.374;8.486;2024-01-15T12:57:30;7.43;;;5.97;;
10403;SDS011;5248;47.374;8.486;2024-01-15T12:59:57;7.03;;;5.60;;
10403;SDS011;5248;47.374;8.486;2024-01-15T13:02:24;6.23;;;5.63;;
10403;SDS011;5248;47.374;8.486;2024-01-15T13:04:50;8.37;;;5.43;;
10403;SDS011;5248;47.374;8.486;2024-01-15T13:07:20;7.33;;;6.30;;
10403;SDS011;5248;47.374;8.486;2024-01-15T13:09:47;7.23;;;5.83;;
10403;SDS011;5248;47.374;8.486;2024-01-15T13:12:17;6.80;;;5.97;;
10403;SDS011;5248;47.374;8.486;2024-01-15T13:14:43;5.90;;;5.23;;
10403;SDS011;5248;47.374;8.486;2024-01-15T13:17:12;6.53;;;5.83;;
10403;SDS011;5248;47.374;8.486;2024-01-15T13:19:39;6.80;;;6.10;;
10403;SDS011;5248;47.374;8.486;2024-01-15T13:22:06;9.10;;;5.80;;
10403;SDS011;5248;47.374;8.486;2024-01-15T13:24:40;7.50;;;6.67;;
10403;SDS011;5248;47.374;8.486;2024-01-15T13:27:07;6.83;;;5.63;;
10403;SDS011;5248;47.374;8.486;2024-01-15T13:29:34;6.53;;;5.83;;
10403;SDS011;5248;47.374;8.486;2024-01-15T13:32:01;7.63;;;6.53;;
10403;SDS011;5248;47.374;8.486;2024-01-15T13:34:28;7.83;;;6.47;;
10403;SDS011;5248;47.374;8.486;2024-01-15T13:36:55;9.03;;;6.17;;
10403;SDS011;5248;47.374;8.486;2024-01-15T13:39:22;6.47;;;5.80;;
10403;SDS011;5248;47.374;8.486;2024-01-15T13:41:50;8.03;;;6.23;;
10403;SDS011;5248;47.374;8.486;2024-01-15T13:44:17;7.63;;;6.33;;
10403;SDS011;5248;47.374;8.486;2024-01-15T13:46:44;8.93;;;6.53;;
10403;SDS011;5248;47.374;8.486;2024-01-15T13:49:11;7.27;;;6.30;;
10403;SDS011;5248;47.374;8.486;2024-01-15T13:51:40;7.23;;;6.07;;
10403;SDS011;5248;47.374;8.486;2024-01-15T13:54:07;8.03;;;6.53;;
10403;SDS011;5248;47.374;8.486;2024-01-15T13:56:34;8.63;;;6.63;;
10403;SDS011;5248;47.374;8.486;2024-01-15T13:59:02;9.50;;;7.13;;
10403;SDS011;5248;47.374;8.486;2024-01-15T14:01:30;9.83;;;7.13;;
10403;SDS011;5248;47.374;8.486;2024-01-15T14:03:58;10.57;;;7.70;;
10403;SDS011;5248;47.374;8.486;2024-01-15T14:06:24;8.27;;;7.07;;
10403;SDS011;5248;47.374;8.486;2024-01-15T14:08:51;10.83;;;8.30;;
10403;SDS011;5248;47.374;8.486;2024-01-15T14:11:18;11.67;;;8.20;;
10403;SDS011;5248;47.374;8.486;2024-01-15T14:13:48;10.80;;;8.47;;
10403;SDS011;5248;47.374;8.486;2024-01-15T14:16:18;10.43;;;8.03;;
10403;SDS011;5248;47.374;8.486;2024-01-15T14:18:45;10.73;;;8.87;;
10403;SDS011;5248;47.374;8.486;2024-01-15T14:21:12;12.53;;;8.57;;
10403;SDS011;5248;47.374;8.486;2024-01-15T14:23:40;11.00;;;8.30;;
10403;SDS011;5248;47.374;8.486;2024-01-15T14:26:07;11.97;;;9.37;;
10403;SDS011;5248;47.374;8.486;2024-01-15T14:28:33;12.47;;;9.47;;
10403;SDS011;5248;47.374;8.486;2024-01-15T14:31:02;14.10;;;9.63;;
10403;SDS011;5248;47.374;8.486;2024-01-15T14:33:31;13.10;;;8.97;;
10403;SDS011;5248;47.374;8.486;2024-01-15T14:35:58;12.80;;;9.40;;
10403;SDS011;5248;47.374;8.486;2024-01-15T14:38:25;12.07;;;9.43;;
10403;SDS011;5248;47.374;8.486;2024-01-15T14:40:51;12.87;;;9.60;;
10403;SDS011;5248;47.374;8.486;2024-01-15T14:43:18;13.30;;;9.43;;
10403;SDS011;5248;47.374;8.486;2024-01-15T14:45:45;14.00;;;9.77;;
10403;SDS011;5248;47.374;8.486;2024-01-15T14:48:12;12.77;;;9.93;;
10403;SDS011;5248;47.374;8.486;2024-01-15T14:50:41;15.27;;;11.13;;
10403;SDS011;5248;47.374;8.486;2024-01-15T14:53:08;17.80;;;11.37;;
10403;SDS011;5248;47.374;8.486;2024-01-15T14:55:35;15.27;;;11.27;;
10403;SDS011;5248;47.374;8.486;2024-01-15T14:58:02;20.50;;;14.67;;
10403;SDS011;5248;47.374;8.486;2024-01-15T15:00:31;17.53;;;11.60;;
10403;SDS011;5248;47.374;8.486;2024-01-15T15:02:58;19.30;;;12.53;;